Time;durP1;ratioP1;P1;durP2;ratioP2;P2;SDS_P1;SDS_P2;PMS_P1;PMS_P2;Temp;Humidity;BMP_temperature;BMP_pressure;BME280_temperature;BME280_humidity;BME280_pressure;Samples;Min_cycle;Max_cycle;Signal;HPM_P1;HPM_P2
2023/12/22 00:00:05;;;;;;;2.07;0.67;;;;;;;;;;4972091;28;20215;-80
2023/12/22 00:02:31;;;;;;;1.17;0.70;;;;;;;;;;4971664;28;20211;-79
2023/12/22 00:04:57;;;;;;;0.77;0.60;;;;;;;;;;4989274;28;20211;-80
2023/12/22 00:07:23;;;;;;;0.80;0.50;;;;;;;;;;4989469;28;20187;-80
2023/12/22 00:09:49;;;;;;;1.87;1.10;;;;;;;;;;4982772;28;20183;-80
2023/12/22 00:12:16;;;;;;;0.80;0.50;;;;;;;;;;4968654;28;20652;-80
2023/12/22 00:14:42;;;;;;;0.47;0.40;;;;;;;;;;5002537;28;20287;-80
2023/12/22 00:17:08;;;;;;;0.63;0.47;;;;;;;;;;4986688;28;20267;-79
2023/12/22 00:19:34;;;;;;;3.43;0.60;;;;;;;;;;4986246;28;20268;-80
2023/12/22 00:22:00;;;;;;;0.40;0.40;;;;;;;;;;4984397;28;20200;-80
2023/12/22 00:24:26;;;;;;;0.70;0.50;;;;;;;;;;4988275;28;20184;-80
2023/12/22 00:26:52;;;;;;;1.10;0.60;;;;;;;;;;4989448;28;20211;-80
2023/12/22 00:29:19;;;;;;;0.60;0.50;;;;;;;;;;4989423;28;20215;-80
2023/12/22 00:31:45;;;;;;;0.50;0.40;;;;;;;;;;4986318;28;20203;-80
2023/12/22 00:34:11;;;;;;;0.90;0.53;;;;;;;;;;4969919;28;20203;-80
2023/12/22 00:36:38;;;;;;;0.50;0.50;;;;;;;;;;4987546;28;20176;-80
2023/12/22 00:39:04;;;;;;;0.50;0.50;;;;;;;;;;4970559;28;20564;-80
2023/12/22 00:41:30;;;;;;;0.50;0.50;;;;;;;;;;4988238;28;20210;-79
2023/12/22 00:43:56;;;;;;;0.67;0.50;;;;;;;;;;4987060;28;20696;-80
2023/12/22 00:46:22;;;;;;;1.50;0.57;;;;;;;;;;4955566;28;20183;-80
2023/12/22 00:48:48;;;;;;;2.37;1.47;;;;;;;;;;4987743;28;20187;-80
2023/12/22 00:51:16;;;;;;;3.73;1.43;;;;;;;;;;4970590;28;20204;-80
2023/12/22 00:53:42;;;;;;;2.20;1.20;;;;;;;;;;4988781;28;20245;-80
2023/12/22 00:56:08;;;;;;;1.50;1.10;;;;;;;;;;4971411;28;20863;-80
2023/12/22 00:58:34;;;;;;;1.57;1.00;;;;;;;;;;4987919;28;20621;-80
2023/12/22 01:01:01;;;;;;;1.17;0.70;;;;;;;;;;4988706;28;20282;-80
2023/12/22 01:03:27;;;;;;;2.10;1.50;;;;;;;;;;5003702;28;20596;-80
2023/12/22 01:05:53;;;;;;;3.73;2.00;;;;;;;;;;4990267;28;20192;-80
2023/12/22 01:08:20;;;;;;;3.10;1.37;;;;;;;;;;4988489;28;20663;-80
2023/12/22 01:10:46;;;;;;;1.23;0.90;;;;;;;;;;4988725;28;20282;-80
2023/12/22 01:13:13;;;;;;;1.53;0.70;;;;;;;;;;4987073;28;20617;-80
2023/12/22 01:15:39;;;;;;;2.50;1.37;;;;;;;;;;4989549;28;20210;-80
2023/12/22 01:18:05;;;;;;;0.60;0.60;;;;;;;;;;4970676;28;20195;-80
2023/12/22 01:20:31;;;;;;;1.10;0.90;;;;;;;;;;4989322;28;20204;-80
2023/12/22 01:22:57;;;;;;;1.20;0.60;;;;;;;;;;4989192;28;20663;-80
2023/12/22 01:25:23;;;;;;;2.43;1.23;;;;;;;;;;4972679;28;20390;-80
2023/12/22 01:27:52;;;;;;;1.30;0.83;;;;;;;;;;4989613;28;20208;-81
2023/12/22 01:30:18;;;;;;;1.93;1.20;;;;;;;;;;4972438;28;20203;-80
2023/12/22 01:32:44;;;;;;;1.67;0.90;;;;;;;;;;4987645;28;20326;-80
2023/12/22 01:35:11;;;;;;;3.00;1.37;;;;;;;;;;4970297;28;20195;-80
2023/12/22 01:37:38;;;;;;;3.40;1.63;;;;;;;;;;4967770;28;20184;-80
2023/12/22 01:40:05;;;;;;;1.30;0.80;;;;;;;;;;4989973;28;20301;-80
2023/12/22 01:42:31;;;;;;;1.03;0.50;;;;;;;;;;5002860;28;20536;-80
2023/12/22 01:44:57;;;;;;;6.33;0.77;;;;;;;;;;4989121;28;20180;-80
2023/12/22 01:47:24;;;;;;;2.03;0.80;;;;;;;;;;4969764;28;20194;-80
2023/12/22 01:49:51;;;;;;;0.80;0.70;;;;;;;;;;4986678;28;20180;-80
2023/12/22 01:52:17;;;;;;;1.40;0.80;;;;;;;;;;4971483;28;20299;-80
2023/12/22 01:54:43;;;;;;;1.80;1.20;;;;;;;;;;4969050;28;20192;-80
2023/12/22 01:57:10;;;;;;;1.17;0.90;;;;;;;;;;4970982;28;20317;-80
2023/12/22 01:59:36;;;;;;;17.10;10.43;;;;;;;;;;4971444;28;20193;-80
2023/12/22 02:02:03;;;;;;;6.93;5.00;;;;;;;;;;4988558;28;20376;-80
2023/12/22 02:04:30;;;;;;;5.47;3.77;;;;;;;;;;5003762;28;20191;-80
2023/12/22 02:06:58;;;;;;;3.17;2.40;;;;;;;;;;4971955;28;20188;-80
2023/12/22 02:09:24;;;;;;;2.50;2.30;;;;;;;;;;4987555;28;20184;-80
2023/12/22 02:11:50;;;;;;;2.83;2.50;;;;;;;;;;4971605;28;20219;-80
2023/12/22 02:14:16;;;;;;;2.37;1.90;;;;;;;;;;4968919;28;20203;-79
2023/12/22 02:16:50;;;;;;;3.17;2.93;;;;;;;;;;4986771;28;20190;-80
2023/12/22 02:19:28;;;;;;;2.70;2.50;;;;;;;;;;5001585;28;20644;-80
2023/12/22 02:22:04;;;;;;;2.37;2.17;;;;;;;;;;4970964;28;20557;-80
2023/12/22 02:24:30;;;;;;;4.20;3.07;;;;;;;;;;4985704;28;20210;-80
2023/12/22 02:27:00;;;;;;;2.70;2.20;;;;;;;;;;4987885;28;20180;-80
2023/12/22 02:29:27;;;;;;;3.17;1.20;;;;;;;;;;4971398;28;20188;-80
2023/12/22 02:31:53;;;;;;;3.83;1.10;;;;;;;;;;4985218;28;20426;-80
2023/12/22 02:34:20;;;;;;;1.50;1.00;;;;;;;;;;4970702;28;20195;-80
2023/12/22 02:36:47;;;;;;;1.63;1.00;;;;;;;;;;4987494;28;20196;-80
2023/12/22 02:39:14;;;;;;;1.77;1.20;;;;;;;;;;4988775;28;20234;-80
2023/12/22 02:41:41;;;;;;;2.90;1.87;;;;;;;;;;4989488;28;20215;-80
2023/12/22 02:44:07;;;;;;;3.47;1.80;;;;;;;;;;4990525;28;20195;-80
2023/12/22 02:46:34;;;;;;;3.30;1.63;;;;;;;;;;4974528;28;20261;-80
2023/12/22 02:49:00;;;;;;;2.47;1.60;;;;;;;;;;4991000;28;20211;-80
2023/12/22 02:51:26;;;;;;;3.07;1.87;;;;;;;;;;4989855;28;20204;-80
2023/12/22 02:53:52;;;;;;;2.10;1.70;;;;;;;;;;4989241;28;20603;-80
2023/12/22 02:56:19;;;;;;;3.20;1.90;;;;;;;;;;4990520;28;20192;-80
2023/12/22 02:58:45;;;;;;;3.77;2.07;;;;;;;;;;4991750;28;20264;-80
2023/12/22 03:01:11;;;;;;;3.07;1.50;;;;;;;;;;4991458;28;20216;-80
2023/12/22 03:03:37;;;;;;;3.87;2.10;;;;;;;;;;4990211;28;20319;-80
2023/12/22 03:06:04;;;;;;;3.33;2.07;;;;;;;;;;4991700;28;20262;-80
2023/12/22 03:08:30;;;;;;;2.17;1.80;;;;;;;;;;4989918;28;20569;-80
2023/12/22 03:10:56;;;;;;;4.27;2.07;;;;;;;;;;4991626;28;20199;-80
2023/12/22 03:13:22;;;;;;;2.90;2.40;;;;;;;;;;4988000;28;20281;-80
2023/12/22 03:15:48;;;;;;;3.23;2.03;;;;;;;;;;4989986;28;20573;-80
2023/12/22 03:18:14;;;;;;;4.20;2.10;;;;;;;;;;4974082;28;20585;-80
2023/12/22 03:20:41;;;;;;;3.27;2.33;;;;;;;;;;4989283;28;20207;-80
2023/12/22 03:23:07;;;;;;;4.27;3.33;;;;;;;;;;4970063;28;20648;-80
2023/12/22 03:25:33;;;;;;;5.20;3.30;;;;;;;;;;4988531;28;20185;-80
2023/12/22 03:27:59;;;;;;;3.80;2.60;;;;;;;;;;4991161;28;20688;-80
2023/12/22 03:30:25;;;;;;;3.63;2.07;;;;;;;;;;4988721;28;20204;-80
2023/12/22 03:32:51;;;;;;;2.80;2.23;;;;;;;;;;4972910;28;20222;-80
2023/12/22 03:35:17;;;;;;;3.80;2.20;;;;;;;;;;4990357;28;20188;-80
2023/12/22 03:37:43;;;;;;;3.23;2.17;;;;;;;;;;4971610;28;20188;-80
2023/12/22 03:40:10;;;;;;;3.13;2.40;;;;;;;;;;4989133;28;20719;-80
2023/12/22 03:42:36;;;;;;;4.07;2.73;;;;;;;;;;4972737;28;20640;-80
2023/12/22 03:45:02;;;;;;;4.90;2.80;;;;;;;;;;4973427;28;20198;-80
2023/12/22 03:47:28;;;;;;;4.87;2.27;;;;;;;;;;4989418;28;20176;-80
2023/12/22 03:49:54;;;;;;;3.63;2.30;;;;;;;;;;4990062;28;20411;-78
2023/12/22 03:52:20;;;;;;;4.67;2.50;;;;;;;;;;4985506;28;20192;-80
2023/12/22 03:54:46;;;;;;;3.23;2.20;;;;;;;;;;4990351;28;20211;-80
2023/12/22 03:57:12;;;;;;;3.27;2.13;;;;;;;;;;4989019;28;20293;-80
2023/12/22 03:59:39;;;;;;;4.43;2.03;;;;;;;;;;4989314;28;20195;-80
2023/12/22 04:02:05;;;;;;;3.20;1.77;;;;;;;;;;4990522;28;20283;-80
2023/12/22 04:04:31;;;;;;;2.20;1.70;;;;;;;;;;4970929;28;20238;-80
2023/12/22 04:06:57;;;;;;;2.73;1.80;;;;;;;;;;4989431;28;20187;-80
2023/12/22 04:09:23;;;;;;;4.03;1.83;;;;;;;;;;4969841;28;20351;-80
2023/12/22 04:11:50;;;;;;;5.03;2.17;;;;;;;;;;4990135;28;20259;-80
2023/12/22 04:14:18;;;;;;;4.93;2.00;;;;;;;;;;4990769;28;20286;-80
2023/12/22 04:16:44;;;;;;;5.77;1.77;;;;;;;;;;4964174;28;20184;-80
2023/12/22 04:19:10;;;;;;;5.47;1.73;;;;;;;;;;4988859;28;20188;-80
2023/12/22 04:21:36;;;;;;;4.53;1.30;;;;;;;;;;4987726;28;20482;-80
2023/12/22 04:24:02;;;;;;;4.43;1.20;;;;;;;;;;4989471;28;20219;-80
2023/12/22 04:26:28;;;;;;;2.77;1.20;;;;;;;;;;4986639;28;20656;-79
2023/12/22 04:28:54;;;;;;;4.73;1.17;;;;;;;;;;4988519;28;20263;-80
2023/12/22 04:31:20;;;;;;;3.93;1.30;;;;;;;;;;4990538;28;20734;-80
2023/12/22 04:33:47;;;;;;;2.27;1.10;;;;;;;;;;4987501;28;20199;-80
2023/12/22 04:36:13;;;;;;;4.43;1.30;;;;;;;;;;4971673;28;20532;-80
2023/12/22 04:38:40;;;;;;;2.70;1.23;;;;;;;;;;4987241;28;20207;-80
2023/12/22 04:41:06;;;;;;;3.90;1.00;;;;;;;;;;4990037;28;20234;-80
2023/12/22 04:43:32;;;;;;;3.97;1.20;;;;;;;;;;4991322;28;20218;-80
2023/12/22 04:45:59;;;;;;;3.47;1.10;;;;;;;;;;4972198;28;20187;-80
2023/12/22 04:48:25;;;;;;;2.50;0.90;;;;;;;;;;4987509;28;20195;-80
2023/12/22 04:50:51;;;;;;;3.63;1.30;;;;;;;;;;4985056;28;20212;-80
2023/12/22 04:53:18;;;;;;;2.00;0.97;;;;;;;;;;4987385;28;20180;-80
2023/12/22 04:55:44;;;;;;;3.30;1.10;;;;;;;;;;4971057;28;20243;-80
2023/12/22 04:58:10;;;;;;;1.97;1.17;;;;;;;;;;4989141;28;20281;-79
2023/12/22 05:00:36;;;;;;;3.57;1.60;;;;;;;;;;4988647;28;20232;-80
2023/12/22 05:03:03;;;;;;;4.53;2.30;;;;;;;;;;4987763;28;20750;-80
2023/12/22 05:05:29;;;;;;;3.17;2.00;;;;;;;;;;4989008;28;20176;-80
2023/12/22 05:07:55;;;;;;;4.93;1.50;;;;;;;;;;4988615;28;20172;-80
2023/12/22 05:10:21;;;;;;;3.80;1.47;;;;;;;;;;4972659;28;20320;-80
2023/12/22 05:12:47;;;;;;;4.47;1.33;;;;;;;;;;4987746;28;20192;-80
2023/12/22 05:15:13;;;;;;;4.17;1.40;;;;;;;;;;4986925;28;20608;-80
2023/12/22 05:17:40;;;;;;;2.47;1.20;;;;;;;;;;4988737;28;20191;-80
2023/12/22 05:20:07;;;;;;;3.20;1.30;;;;;;;;;;4987181;28;20220;-80
2023/12/22 05:22:33;;;;;;;5.27;1.30;;;;;;;;;;4953955;28;20221;-79
2023/12/22 05:24:59;;;;;;;4.60;1.30;;;;;;;;;;4956549;28;20591;-81
2023/12/22 05:27:26;;;;;;;2.77;1.30;;;;;;;;;;4984350;28;20621;-80
2023/12/22 05:29:53;;;;;;;4.63;1.27;;;;;;;;;;4987918;28;20176;-80
2023/12/22 05:32:19;;;;;;;3.10;1.07;;;;;;;;;;4988247;28;20175;-80
2023/12/22 05:34:45;;;;;;;4.80;1.27;;;;;;;;;;4986623;28;20637;-81
2023/12/22 05:37:11;;;;;;;5.47;1.30;;;;;;;;;;4991315;28;20608;-80
2023/12/22 05:39:38;;;;;;;5.87;1.30;;;;;;;;;;4987025;28;20230;-80
2023/12/22 05:42:04;;;;;;;2.90;1.00;;;;;;;;;;4986076;28;20211;-80
2023/12/22 05:44:30;;;;;;;4.60;1.30;;;;;;;;;;4985754;28;20185;-80
2023/12/22 05:46:59;;;;;;;7.53;1.30;;;;;;;;;;4971990;28;20710;-80
2023/12/22 05:49:25;;;;;;;2.90;1.27;;;;;;;;;;4987036;28;20286;-80
2023/12/22 05:51:51;;;;;;;2.13;1.07;;;;;;;;;;4985359;28;20673;-80
2023/12/22 05:54:19;;;;;;;3.07;1.20;;;;;;;;;;4966645;28;20219;-80
2023/12/22 05:56:45;;;;;;;6.43;1.57;;;;;;;;;;4984377;28;20242;-81
2023/12/22 05:59:12;;;;;;;4.93;1.20;;;;;;;;;;4985124;28;20261;-80
2023/12/22 06:01:38;;;;;;;3.97;1.30;;;;;;;;;;4966643;28;20246;-80
2023/12/22 06:04:04;;;;;;;4.07;1.43;;;;;;;;;;4984608;28;20184;-80
2023/12/22 06:06:30;;;;;;;5.27;1.33;;;;;;;;;;4967621;28;20253;-80
2023/12/22 06:08:56;;;;;;;3.87;1.63;;;;;;;;;;4988317;28;20267;-80
2023/12/22 06:11:22;;;;;;;7.10;1.53;;;;;;;;;;4987715;28;20199;-80
2023/12/22 06:13:49;;;;;;;3.63;1.50;;;;;;;;;;4987330;28;20192;-80
2023/12/22 06:16:15;;;;;;;2.87;1.70;;;;;;;;;;4986404;28;20191;-82
2023/12/22 06:18:42;;;;;;;4.67;1.93;;;;;;;;;;4969516;28;20195;-80
2023/12/22 06:21:09;;;;;;;4.47;1.47;;;;;;;;;;4970546;28;20220;-81
2023/12/22 06:23:36;;;;;;;3.63;1.90;;;;;;;;;;4983212;28;20207;-81
2023/12/22 06:26:02;;;;;;;3.17;2.10;;;;;;;;;;4985260;28;20188;-80
2023/12/22 06:28:28;;;;;;;5.03;1.80;;;;;;;;;;4986731;28;20270;-80
2023/12/22 06:30:54;;;;;;;4.27;1.80;;;;;;;;;;4987447;28;20207;-80
2023/12/22 06:33:21;;;;;;;5.33;1.93;;;;;;;;;;4983957;28;20196;-81
2023/12/22 06:35:47;;;;;;;6.00;2.10;;;;;;;;;;4984180;28;20195;-80
2023/12/22 06:38:14;;;;;;;6.33;3.03;;;;;;;;;;4970221;28;20274;-81
2023/12/22 06:40:40;;;;;;;9.67;3.07;;;;;;;;;;4969920;28;20262;-80
2023/12/22 06:43:06;;;;;;;6.67;2.17;;;;;;;;;;4986278;28;20215;-81
2023/12/22 06:45:32;;;;;;;6.50;2.20;;;;;;;;;;4968718;28;20503;-80
2023/12/22 06:47:58;;;;;;;7.60;2.30;;;;;;;;;;4986219;28;20227;-79
2023/12/22 06:50:24;;;;;;;6.13;2.10;;;;;;;;;;4986579;28;20207;-79
2023/12/22 06:52:51;;;;;;;6.37;2.53;;;;;;;;;;4983525;28;20196;-80
2023/12/22 06:55:17;;;;;;;7.67;2.90;;;;;;;;;;4986467;28;20503;-79
2023/12/22 06:57:43;;;;;;;9.37;3.10;;;;;;;;;;4986654;28;20192;-80
2023/12/22 07:00:09;;;;;;;7.13;2.30;;;;;;;;;;4985385;28;20302;-79
2023/12/22 07:02:35;;;;;;;5.27;1.93;;;;;;;;;;4984853;28;20691;-79
2023/12/22 07:05:06;;;;;;;7.93;2.00;;;;;;;;;;4986770;28;20180;-80
2023/12/22 07:07:32;;;;;;;5.73;1.90;;;;;;;;;;4987968;28;20271;-79
2023/12/22 07:09:58;;;;;;;8.43;2.20;;;;;;;;;;4986624;28;20243;-79
2023/12/22 07:12:24;;;;;;;8.10;2.17;;;;;;;;;;4985360;28;20257;-79
2023/12/22 07:14:50;;;;;;;6.97;1.87;;;;;;;;;;4981108;28;20218;-80
2023/12/22 07:17:16;;;;;;;7.87;2.00;;;;;;;;;;4970380;28;20200;-80
2023/12/22 07:19:43;;;;;;;6.97;2.20;;;;;;;;;;4984215;28;20199;-80
2023/12/22 07:22:09;;;;;;;7.33;1.80;;;;;;;;;;4985015;28;20203;-79
2023/12/22 07:24:35;;;;;;;5.47;1.70;;;;;;;;;;4986716;28;20243;-79
2023/12/22 07:27:01;;;;;;;4.70;1.60;;;;;;;;;;4988747;28;20176;-79
2023/12/22 07:29:27;;;;;;;4.83;1.73;;;;;;;;;;4991298;28;20211;-80
2023/12/22 07:31:53;;;;;;;9.63;1.93;;;;;;;;;;4989431;28;20227;-80
2023/12/22 07:34:22;;;;;;;6.93;1.90;;;;;;;;;;4987721;28;20188;-80
2023/12/22 07:36:48;;;;;;;5.37;1.80;;;;;;;;;;4988759;28;20250;-79
2023/12/22 07:39:15;;;;;;;4.80;1.80;;;;;;;;;;4988049;28;20184;-79
2023/12/22 07:41:41;;;;;;;7.90;1.87;;;;;;;;;;5005665;28;20204;-80
2023/12/22 07:44:07;;;;;;;5.13;1.53;;;;;;;;;;4989831;28;20196;-80
2023/12/22 07:46:33;;;;;;;4.43;1.83;;;;;;;;;;4991879;28;20211;-76
2023/12/22 07:48:59;;;;;;;5.97;1.70;;;;;;;;;;4990735;28;20586;-78
2023/12/22 07:51:25;;;;;;;5.33;1.47;;;;;;;;;;4988209;28;20203;-79
2023/12/22 07:53:51;;;;;;;5.63;1.70;;;;;;;;;;4989058;28;20191;-80
2023/12/22 07:56:18;;;;;;;4.07;1.67;;;;;;;;;;4976344;28;20243;-79
2023/12/22 07:58:44;;;;;;;4.40;1.47;;;;;;;;;;4998380;28;20183;-78
2023/12/22 08:01:10;;;;;;;4.77;1.60;;;;;;;;;;4990458;28;20207;-80
2023/12/22 08:03:37;;;;;;;5.47;1.53;;;;;;;;;;4989292;28;20215;-80
2023/12/22 08:06:03;;;;;;;3.80;1.27;;;;;;;;;;4990771;28;20182;-80
2023/12/22 08:08:29;;;;;;;4.57;1.30;;;;;;;;;;4990955;28;20251;-80
2023/12/22 08:10:55;;;;;;;5.73;1.47;;;;;;;;;;4990472;28;20718;-79
2023/12/22 08:13:22;;;;;;;3.50;1.30;;;;;;;;;;4970249;28;21019;-79
2023/12/22 08:15:48;;;;;;;3.30;1.10;;;;;;;;;;4990760;28;20187;-80
2023/12/22 08:18:14;;;;;;;5.27;1.43;;;;;;;;;;4990354;28;20190;-80
2023/12/22 08:20:40;;;;;;;3.10;1.10;;;;;;;;;;4988972;28;20208;-80
2023/12/22 08:23:06;;;;;;;3.10;1.27;;;;;;;;;;4970003;28;20219;-80
2023/12/22 08:25:33;;;;;;;3.27;1.13;;;;;;;;;;4990649;28;20199;-79
2023/12/22 08:27:59;;;;;;;3.63;1.20;;;;;;;;;;4989253;28;20184;-79
2023/12/22 08:30:25;;;;;;;2.63;1.00;;;;;;;;;;4989879;28;20692;-79
2023/12/22 08:32:51;;;;;;;3.53;1.00;;;;;;;;;;4992997;28;20548;-79
2023/12/22 08:35:17;;;;;;;2.43;0.90;;;;;;;;;;4990224;28;20274;-79
2023/12/22 08:37:43;;;;;;;1.40;0.80;;;;;;;;;;4973204;28;20184;-79
2023/12/22 08:40:10;;;;;;;1.80;0.80;;;;;;;;;;4971589;28;20215;-80
2023/12/22 08:42:36;;;;;;;2.90;1.10;;;;;;;;;;4988871;28;20207;-80
2023/12/22 08:45:02;;;;;;;2.37;1.00;;;;;;;;;;4973891;28;20298;-80
2023/12/22 08:47:28;;;;;;;1.67;0.80;;;;;;;;;;4991825;28;20662;-80
2023/12/22 08:49:54;;;;;;;1.73;0.80;;;;;;;;;;4989649;28;20261;-80
2023/12/22 08:52:20;;;;;;;2.50;1.10;;;;;;;;;;4989440;28;20540;-80
2023/12/22 08:54:47;;;;;;;2.60;0.90;;;;;;;;;;4991903;28;20195;-80
2023/12/22 08:57:13;;;;;;;3.90;1.00;;;;;;;;;;4989199;28;20198;-80
2023/12/22 08:59:39;;;;;;;2.20;1.10;;;;;;;;;;4990173;28;20660;-80
2023/12/22 09:02:05;;;;;;;3.67;1.23;;;;;;;;;;4990711;28;20295;-80
2023/12/22 09:04:32;;;;;;;3.60;1.27;;;;;;;;;;4994971;28;20678;-80
2023/12/22 09:06:58;;;;;;;4.20;1.30;;;;;;;;;;4994823;28;20419;-80
2023/12/22 09:09:25;;;;;;;4.33;1.40;;;;;;;;;;5000872;28;20176;-80
2023/12/22 09:11:51;;;;;;;5.27;1.47;;;;;;;;;;4999911;28;20242;-80
2023/12/22 09:14:18;;;;;;;4.07;1.30;;;;;;;;;;4979409;28;20608;-80
2023/12/22 09:16:45;;;;;;;5.53;1.80;;;;;;;;;;4973288;28;20196;-80
2023/12/22 09:19:11;;;;;;;4.57;1.50;;;;;;;;;;4975713;28;20660;-80
2023/12/22 09:21:37;;;;;;;4.70;1.80;;;;;;;;;;5002021;28;20253;-80
2023/12/22 09:24:05;;;;;;;9.87;1.93;;;;;;;;;;4994809;28;20650;-80
2023/12/22 09:26:32;;;;;;;8.97;1.90;;;;;;;;;;4975622;28;20188;-80
2023/12/22 09:28:58;;;;;;;6.27;1.73;;;;;;;;;;4992647;28;20232;-80
2023/12/22 09:31:24;;;;;;;7.00;1.83;;;;;;;;;;4990657;28;20211;-80
2023/12/22 09:33:50;;;;;;;6.90;2.00;;;;;;;;;;4990459;28;20195;-80
2023/12/22 09:36:17;;;;;;;6.20;2.07;;;;;;;;;;4990641;28;20188;-79
2023/12/22 09:38:44;;;;;;;8.17;2.43;;;;;;;;;;4989284;28;20541;-79
2023/12/22 09:41:10;;;;;;;8.23;2.20;;;;;;;;;;4988571;28;20207;-80
2023/12/22 09:43:37;;;;;;;6.37;2.03;;;;;;;;;;4973584;28;20204;-79
2023/12/22 09:46:04;;;;;;;9.50;2.40;;;;;;;;;;4972695;28;20591;-81
2023/12/22 09:48:31;;;;;;;8.43;2.70;;;;;;;;;;4991221;28;20956;-79
2023/12/22 09:50:58;;;;;;;11.73;2.57;;;;;;;;;;4984809;28;20275;-80
2023/12/22 09:53:24;;;;;;;10.07;2.70;;;;;;;;;;4986666;28;20194;-80
2023/12/22 09:55:51;;;;;;;9.17;3.27;;;;;;;;;;4987852;28;20191;-80
2023/12/22 09:58:17;;;;;;;9.27;2.90;;;;;;;;;;4989470;28;20195;-80
2023/12/22 10:00:43;;;;;;;7.10;2.80;;;;;;;;;;4988731;28;20562;-80
2023/12/22 10:03:11;;;;;;;14.23;3.90;;;;;;;;;;4986992;28;20665;-81
2023/12/22 10:05:39;;;;;;;11.30;3.43;;;;;;;;;;4987101;28;20624;-76
2023/12/22 10:08:05;;;;;;;8.70;3.10;;;;;;;;;;4996471;28;20192;-78
2023/12/22 10:10:32;;;;;;;13.97;3.47;;;;;;;;;;4968738;28;20307;-84
2023/12/22 10:12:59;;;;;;;13.97;3.20;;;;;;;;;;4972959;28;20671;-85
2023/12/22 10:15:26;;;;;;;16.03;3.90;;;;;;;;;;4971785;28;20210;-84
2023/12/22 10:17:52;;;;;;;13.40;3.43;;;;;;;;;;4973312;28;20578;-84
2023/12/22 10:20:19;;;;;;;12.30;3.10;;;;;;;;;;4988880;28;20207;-87
2023/12/22 10:22:46;;;;;;;13.53;3.27;;;;;;;;;;4973660;28;20253;-86
2023/12/22 10:25:15;;;;;;;12.00;3.30;;;;;;;;;;4976380;28;20184;-84
2023/12/22 10:27:43;;;;;;;14.47;3.37;;;;;;;;;;4972749;28;20600;-84
2023/12/22 10:30:09;;;;;;;14.37;3.80;;;;;;;;;;4972470;28;20893;-82
2023/12/22 10:32:41;;;;;;;27.77;3.93;;;;;;;;;;4969977;28;20195;-83
2023/12/22 10:35:08;;;;;;;12.47;4.00;;;;;;;;;;4988250;28;20199;-83
2023/12/22 10:37:34;;;;;;;15.53;4.07;;;;;;;;;;4977223;28;20187;-83
2023/12/22 10:40:01;;;;;;;15.50;3.50;;;;;;;;;;4986964;28;20214;-83
2023/12/22 10:42:27;;;;;;;14.17;3.13;;;;;;;;;;4986907;28;20219;-83
2023/12/22 10:44:53;;;;;;;18.63;3.70;;;;;;;;;;4972718;28;20199;-83
2023/12/22 10:47:22;;;;;;;15.73;4.17;;;;;;;;;;4973349;28;20190;-83
2023/12/22 10:49:48;;;;;;;14.17;3.13;;;;;;;;;;4991366;28;20172;-83
2023/12/22 10:52:17;;;;;;;13.87;3.40;;;;;;;;;;4990517;28;20180;-82
2023/12/22 10:54:43;;;;;;;12.90;3.50;;;;;;;;;;4973942;28;20196;-83
2023/12/22 10:57:10;;;;;;;12.13;3.33;;;;;;;;;;4988938;28;20195;-83
2023/12/22 10:59:39;;;;;;;17.50;3.00;;;;;;;;;;4972168;28;20611;-83
2023/12/22 11:02:07;;;;;;;14.70;4.17;;;;;;;;;;4991977;28;20180;-83
2023/12/22 11:04:36;;;;;;;17.20;4.07;;;;;;;;;;4976281;28;20188;-84
2023/12/22 11:07:04;;;;;;;14.10;3.50;;;;;;;;;;4994489;28;20198;-82
2023/12/22 11:09:32;;;;;;;14.43;3.73;;;;;;;;;;5005577;28;20231;-83
2023/12/22 11:11:59;;;;;;;15.07;3.63;;;;;;;;;;4974326;28;20277;-83
2023/12/22 11:14:26;;;;;;;16.90;3.67;;;;;;;;;;4999543;28;20200;-83
2023/12/22 11:16:52;;;;;;;15.43;3.50;;;;;;;;;;4992116;28;20189;-83
2023/12/22 11:19:19;;;;;;;14.97;4.03;;;;;;;;;;4991978;28;20187;-83
2023/12/22 11:21:45;;;;;;;13.07;3.63;;;;;;;;;;4990575;28;20821;-83
2023/12/22 11:24:14;;;;;;;14.97;3.40;;;;;;;;;;4974541;28;20224;-83
2023/12/22 11:26:42;;;;;;;13.40;4.03;;;;;;;;;;4964394;28;20563;-83
2023/12/22 11:29:10;;;;;;;13.13;3.47;;;;;;;;;;4990708;28;20620;-83
2023/12/22 11:31:36;;;;;;;11.40;3.27;;;;;;;;;;4975674;28;20284;-84
2023/12/22 11:34:02;;;;;;;11.97;3.57;;;;;;;;;;4972203;28;20247;-83
2023/12/22 11:36:30;;;;;;;10.90;3.13;;;;;;;;;;4988303;28;20187;-83
2023/12/22 11:38:56;;;;;;;12.47;3.10;;;;;;;;;;4986883;28;20259;-84
2023/12/22 11:41:25;;;;;;;12.03;3.20;;;;;;;;;;4981536;28;20214;-83
2023/12/22 11:43:51;;;;;;;11.03;3.33;;;;;;;;;;4971433;28;20219;-83
2023/12/22 11:46:18;;;;;;;11.00;3.57;;;;;;;;;;4973088;28;20223;-83
2023/12/22 11:48:48;;;;;;;11.10;2.80;;;;;;;;;;4972882;28;20195;-84
2023/12/22 11:51:15;;;;;;;12.20;3.07;;;;;;;;;;4972719;28;20207;-83
2023/12/22 11:53:42;;;;;;;12.50;2.70;;;;;;;;;;4987057;28;20192;-79
2023/12/22 11:56:09;;;;;;;11.23;3.50;;;;;;;;;;4988959;28;20290;-78
2023/12/22 11:58:36;;;;;;;14.53;3.67;;;;;;;;;;4988381;28;20267;-76
2023/12/22 12:01:06;;;;;;;8.87;2.70;;;;;;;;;;4988343;28;20467;-76
2023/12/22 12:03:32;;;;;;;11.43;3.20;;;;;;;;;;4987046;28;20258;-76
2023/12/22 12:06:19;;;;;;;8.43;3.00;;;;;;;;;;4988578;28;20750;-78
2023/12/22 12:08:45;;;;;;;12.10;3.07;;;;;;;;;;4983905;28;20210;-78
2023/12/22 12:11:12;;;;;;;13.80;3.47;;;;;;;;;;4989221;28;20208;-78
2023/12/22 12:13:42;;;;;;;12.23;3.77;;;;;;;;;;4987993;28;20195;-78
2023/12/22 12:16:09;;;;;;;8.33;3.27;;;;;;;;;;4971717;28;20195;-78
2023/12/22 12:18:35;;;;;;;12.83;3.33;;;;;;;;;;4988370;28;20624;-77
2023/12/22 12:21:02;;;;;;;9.17;3.30;;;;;;;;;;4986507;28;20215;-77
2023/12/22 12:23:28;;;;;;;8.10;2.60;;;;;;;;;;4987787;28;20211;-76
2023/12/22 12:25:55;;;;;;;4.40;2.00;;;;;;;;;;4986805;28;20195;-77
2023/12/22 12:28:45;;;;;;;9.87;2.20;;;;;;;;;;4953487;28;20630;-80
2023/12/22 12:31:12;;;;;;;10.27;2.17;;;;;;;;;;4985277;28;20229;-75
2023/12/22 12:33:38;;;;;;;3.97;1.67;;;;;;;;;;4987610;28;20192;-80
2023/12/22 12:36:05;;;;;;;4.13;2.07;;;;;;;;;;4990841;28;20203;-79
2023/12/22 12:38:34;;;;;;;3.37;1.60;;;;;;;;;;4987560;28;20227;-78
2023/12/22 12:41:00;;;;;;;3.73;1.80;;;;;;;;;;4987065;28;20598;-78
2023/12/22 12:43:26;;;;;;;4.53;1.90;;;;;;;;;;4985935;28;20302;-78
2023/12/22 12:45:52;;;;;;;3.50;1.70;;;;;;;;;;4987446;28;20197;-78
2023/12/22 12:48:22;;;;;;;3.33;1.70;;;;;;;;;;4988003;28;20182;-78
2023/12/22 12:50:48;;;;;;;4.07;1.70;;;;;;;;;;4987214;28;20200;-79
2023/12/22 12:53:14;;;;;;;2.93;1.30;;;;;;;;;;4986536;28;20678;-78
2023/12/22 12:55:40;;;;;;;3.87;1.60;;;;;;;;;;4987565;28;21675;-78
2023/12/22 12:58:06;;;;;;;3.07;1.40;;;;;;;;;;4987623;28;20683;-78
2023/12/22 13:00:36;;;;;;;4.03;1.60;;;;;;;;;;4986799;28;20203;-78
2023/12/22 13:03:03;;;;;;;2.37;1.23;;;;;;;;;;4986109;28;20626;-79
2023/12/22 13:05:29;;;;;;;3.10;1.27;;;;;;;;;;4987566;28;20282;-78
2023/12/22 13:08:07;;;;;;;1.93;1.27;;;;;;;;;;4986296;28;20204;-79
2023/12/22 13:10:34;;;;;;;3.10;1.30;;;;;;;;;;4986454;28;20208;-79
2023/12/22 13:13:00;;;;;;;4.87;2.40;;;;;;;;;;4987848;28;20673;-78
2023/12/22 13:15:26;;;;;;;3.77;1.93;;;;;;;;;;4987123;28;20263;-78
2023/12/22 13:17:52;;;;;;;1.40;1.30;;;;;;;;;;4986494;28;20192;-79
2023/12/22 13:20:19;;;;;;;3.93;1.50;;;;;;;;;;4988498;28;20223;-78
2023/12/22 13:22:46;;;;;;;2.63;1.60;;;;;;;;;;4987038;28;20588;-79
2023/12/22 13:25:12;;;;;;;2.87;1.70;;;;;;;;;;4987900;28;20180;-77
2023/12/22 13:27:48;;;;;;;2.57;1.20;;;;;;;;;;4985686;28;20196;-77
2023/12/22 13:30:15;;;;;;;1.87;1.00;;;;;;;;;;4988296;28;20346;-78
2023/12/22 13:32:41;;;;;;;1.70;1.20;;;;;;;;;;4978027;28;21086;-77
2023/12/22 13:35:08;;;;;;;1.47;1.10;;;;;;;;;;4985242;28;20194;-78
2023/12/22 13:37:34;;;;;;;1.87;1.20;;;;;;;;;;4985573;28;20329;-78
2023/12/22 13:40:00;;;;;;;1.10;0.80;;;;;;;;;;4987592;28;20256;-78
2023/12/22 13:42:26;;;;;;;1.53;0.80;;;;;;;;;;4969024;28;20214;-78
2023/12/22 13:44:53;;;;;;;1.67;0.90;;;;;;;;;;4988184;28;20187;-78
2023/12/22 13:47:20;;;;;;;2.97;1.10;;;;;;;;;;4980408;28;20644;-79
2023/12/22 13:49:46;;;;;;;4.50;1.40;;;;;;;;;;5000915;28;20180;-77
2023/12/22 13:52:26;;;;;;;2.30;1.20;;;;;;;;;;4985387;28;20242;-77
2023/12/22 13:54:55;;;;;;;2.53;1.00;;;;;;;;;;4971104;28;20672;-78
2023/12/22 13:57:22;;;;;;;1.67;0.90;;;;;;;;;;4987984;28;20261;-79
2023/12/22 13:59:48;;;;;;;1.10;0.90;;;;;;;;;;4982925;28;20184;-79
2023/12/22 14:02:14;;;;;;;1.63;1.00;;;;;;;;;;4963516;28;20629;-78
2023/12/22 14:04:40;;;;;;;1.40;1.03;;;;;;;;;;4983420;28;20250;-78
2023/12/22 14:07:07;;;;;;;1.07;0.97;;;;;;;;;;4985545;28;20607;-78
2023/12/22 14:09:33;;;;;;;1.80;1.33;;;;;;;;;;4985234;28;20641;-78
2023/12/22 14:12:00;;;;;;;2.97;1.07;;;;;;;;;;4984012;28;20234;-78
2023/12/22 14:14:26;;;;;;;2.07;1.30;;;;;;;;;;4987399;28;20200;-78
2023/12/22 14:16:52;;;;;;;3.63;0.90;;;;;;;;;;4986271;28;20267;-78
2023/12/22 14:19:18;;;;;;;2.93;1.50;;;;;;;;;;4986802;28;20278;-78
2023/12/22 14:21:44;;;;;;;1.37;0.93;;;;;;;;;;4985627;28;20298;-78
2023/12/22 14:24:11;;;;;;;1.40;0.90;;;;;;;;;;4987493;28;20215;-78
2023/12/22 14:26:53;;;;;;;1.10;1.00;;;;;;;;;;4987447;28;20327;-78
2023/12/22 14:29:19;;;;;;;1.10;0.90;;;;;;;;;;4987153;28;20648;-78
2023/12/22 14:31:45;;;;;;;1.20;0.90;;;;;;;;;;4966916;28;20211;-78
2023/12/22 14:34:15;;;;;;;1.53;0.90;;;;;;;;;;4987026;28;20188;-78
2023/12/22 14:36:41;;;;;;;1.73;1.00;;;;;;;;;;4990483;28;20215;-78